Four Marks, United Kingdom
Current Conditions -  °F | °C
As of 9:50 AM on Thursday 29 Jan 2015 (Local Time) from EGVO Reporting Station
Few Clouds Few Clouds  
Wind Chill: 28°   Ceiling: Unl
Heat Index: 37°   Visibility: 6mi
Dew Point: 32°   Wind: 17mph
Humidity: 81%   Direction: 220°SW
Pressure: 29.15"   Gusts: NA
Location:  51.11°N, 1.05°W
Report Text: EGVO 290950Z 22015KT 9999 FEW010 03/M00 Q0987 BLU NOSIG
Loading
Personal Weather Stations






























Interactive Weather Map New forecast layout! Learn more

10-Day Weather Forecast

Advertisements
Track Severe Weather on mobile